Time;durP1;ratioP1;P1;durP2;ratioP2;P2;SDS_P1;SDS_P2;PMS_P1;PMS_P2;Temp;Humidity;BMP_temperature;BMP_pressure;BME280_temperature;BME280_humidity;BME280_pressure;Samples;Min_cycle;Max_cycle;Signal;HPM_P1;HPM_P2
2022/02/22 00:00:07;;;;;;;0.90;0.90;;;7.00;99.90;;;;;;5053459;28;20190;-81
2022/02/22 00:02:33;;;;;;;0.47;0.47;;;6.90;99.90;;;;;;5049436;28;20193;-79
2022/02/22 00:04:59;;;;;;;0.67;0.67;;;6.90;99.90;;;;;;5049262;28;20233;-80
2022/02/22 00:07:25;;;;;;;0.43;0.43;;;6.90;99.90;;;;;;5062066;28;20312;-83
2022/02/22 00:09:50;;;;;;;0.70;0.70;;;6.90;99.90;;;;;;5061616;28;20225;-79
2022/02/22 00:12:16;;;;;;;0.73;0.73;;;6.90;99.90;;;;;;5061874;28;20669;-81
2022/02/22 00:14:43;;;;;;;3.83;1.47;;;6.90;99.90;;;;;;5054617;28;20237;-80
2022/02/22 00:17:09;;;;;;;0.40;0.40;;;6.90;99.90;;;;;;5051475;28;20701;-81
2022/02/22 00:19:35;;;;;;;0.77;0.73;;;6.90;99.90;;;;;;5060758;28;20206;-81
2022/02/22 00:22:01;;;;;;;0.40;0.40;;;6.80;99.90;;;;;;5050495;28;20224;-81
2022/02/22 00:24:27;;;;;;;3.47;1.47;;;6.80;99.90;;;;;;5061825;28;20232;-80
2022/02/22 00:26:52;;;;;;;1.30;0.80;;;6.80;99.90;;;;;;5062563;28;20558;-80
2022/02/22 00:29:19;;;;;;;1.03;1.03;;;6.80;99.90;;;;;;5018964;28;20240;-79
2022/02/22 00:31:44;;;;;;;9.33;2.10;;;6.70;99.90;;;;;;5054729;28;20678;-80
2022/02/22 00:34:10;;;;;;;0.20;0.20;;;6.80;99.90;;;;;;5049683;28;20263;-81
2022/02/22 00:36:36;;;;;;;16.47;1.90;;;6.80;99.90;;;;;;5060057;28;20227;-81
2022/02/22 00:39:05;;;;;;;2.90;0.40;;;6.80;99.90;;;;;;5031807;28;20236;-80
2022/02/22 00:41:31;;;;;;;3.60;1.27;;;6.70;99.90;;;;;;5060468;28;20208;-82
2022/02/22 00:43:57;;;;;;;0.20;0.20;;;6.70;99.90;;;;;;5035091;28;20269;-80
2022/02/22 00:46:23;;;;;;;4.00;3.70;;;6.70;99.90;;;;;;5051312;28;20699;-81
2022/02/22 00:48:49;;;;;;;0.37;0.37;;;6.70;99.90;;;;;;5056892;28;20216;-80
2022/02/22 00:51:15;;;;;;;0.30;0.30;;;6.70;99.90;;;;;;5050071;28;20198;-80
2022/02/22 00:53:41;;;;;;;0.87;0.80;;;6.60;99.90;;;;;;5060695;28;20232;-80
2022/02/22 00:56:07;;;;;;;4.90;1.40;;;6.60;99.90;;;;;;5047937;28;20220;-81
2022/02/22 00:58:32;;;;;;;1.70;0.93;;;6.60;99.90;;;;;;5017368;28;20209;-80
2022/02/22 01:00:58;;;;;;;7.83;1.77;;;6.60;99.90;;;;;;5047543;28;20229;-81
2022/02/22 01:03:24;;;;;;;27.27;4.20;;;6.50;99.90;;;;;;5025666;28;20220;-81
2022/02/22 01:05:49;;;;;;;0.60;0.60;;;6.60;99.90;;;;;;5026991;28;20972;-80
2022/02/22 01:08:17;;;;;;;0.97;0.50;;;6.60;99.90;;;;;;5036847;28;20221;-81
2022/02/22 01:10:42;;;;;;;0.20;0.20;;;6.60;99.90;;;;;;5059582;28;20224;-80
2022/02/22 01:13:08;;;;;;;0.67;0.67;;;6.60;99.90;;;;;;5035486;28;20209;-80
2022/02/22 01:15:34;;;;;;;2.33;0.40;;;6.60;99.90;;;;;;5061112;28;20293;-81
2022/02/22 01:18:00;;;;;;;1.40;0.83;;;6.60;99.90;;;;;;5052848;28;20965;-81
2022/02/22 01:20:26;;;;;;;1.80;0.87;;;6.50;99.90;;;;;;5060715;28;20197;-80
2022/02/22 01:22:54;;;;;;;15.60;3.40;;;6.60;99.90;;;;;;5048505;28;20220;-81
2022/02/22 01:25:20;;;;;;;2.63;0.87;;;6.60;99.90;;;;;;5033310;28;20229;-80
2022/02/22 01:27:46;;;;;;;3.00;0.70;;;6.60;99.90;;;;;;5059666;28;20225;-80
2022/02/22 01:30:12;;;;;;;12.20;0.80;;;6.60;99.90;;;;;;5047493;28;20205;-80
2022/02/22 01:32:38;;;;;;;0.40;0.40;;;6.60;99.90;;;;;;5048486;28;20342;-80
2022/02/22 01:35:06;;;;;;;1.13;1.03;;;6.60;99.90;;;;;;5034221;28;20263;-80
2022/02/22 01:37:32;;;;;;;0.40;0.37;;;6.50;99.90;;;;;;5053124;28;20225;-81
2022/02/22 01:39:58;;;;;;;2.93;0.83;;;6.50;99.90;;;;;;5053413;28;20217;-80
2022/02/22 01:42:24;;;;;;;0.83;0.83;;;6.40;99.90;;;;;;5060884;28;20226;-80
2022/02/22 01:44:51;;;;;;;2.43;1.30;;;6.40;99.90;;;;;;5048943;28;20197;-82
2022/02/22 01:47:17;;;;;;;0.70;0.70;;;6.30;99.90;;;;;;5058985;28;20213;-79
2022/02/22 01:49:44;;;;;;;1.80;1.13;;;6.30;99.90;;;;;;5047225;28;20220;-80
2022/02/22 01:52:10;;;;;;;0.80;0.80;;;6.30;99.90;;;;;;5049437;28;20217;-80
2022/02/22 01:54:37;;;;;;;3.97;1.43;;;6.30;99.90;;;;;;5046689;28;20240;-80
2022/02/22 01:57:03;;;;;;;1.33;1.30;;;6.30;99.90;;;;;;5047769;28;20200;-81
2022/02/22 01:59:29;;;;;;;0.40;0.40;;;6.30;99.90;;;;;;5051099;28;20194;-81
2022/02/22 02:01:54;;;;;;;1.73;1.63;;;6.30;99.90;;;;;;5033786;28;20209;-80
2022/02/22 02:04:20;;;;;;;4.93;0.87;;;6.30;99.90;;;;;;5053293;28;20588;-80
2022/02/22 02:06:46;;;;;;;0.67;0.67;;;6.30;99.90;;;;;;5059943;28;20221;-80
2022/02/22 02:09:12;;;;;;;0.87;0.87;;;6.40;99.90;;;;;;5048799;28;20196;-81
2022/02/22 02:11:49;;;;;;;1.73;1.63;;;6.30;99.90;;;;;;5059366;28;20185;-82
2022/02/22 02:14:16;;;;;;;7.00;1.23;;;6.30;99.90;;;;;;5046271;28;20848;-81
2022/02/22 02:16:42;;;;;;;3.07;1.03;;;6.40;99.90;;;;;;5052492;28;20436;-80
2022/02/22 02:19:10;;;;;;;6.97;0.67;;;6.30;99.90;;;;;;5059552;28;20213;-83
2022/02/22 02:21:38;;;;;;;4.10;0.83;;;6.30;99.90;;;;;;5058630;28;20217;-79
2022/02/22 02:24:12;;;;;;;3.63;1.60;;;6.30;99.90;;;;;;5059638;28;20195;-82
2022/02/22 02:26:39;;;;;;;3.27;1.20;;;6.30;99.90;;;;;;5052041;28;20196;-80
2022/02/22 02:29:09;;;;;;;3.60;1.97;;;6.30;99.90;;;;;;5050146;28;20300;-80
2022/02/22 02:31:36;;;;;;;0.90;0.90;;;6.40;99.90;;;;;;5049879;28;20217;-80
2022/02/22 02:34:03;;;;;;;2.90;1.20;;;6.40;99.90;;;;;;5059474;28;20281;-80
2022/02/22 02:36:32;;;;;;;7.10;1.37;;;6.40;99.90;;;;;;5061227;28;20290;-80
2022/02/22 02:38:58;;;;;;;2.93;1.40;;;6.30;99.90;;;;;;5050025;28;20290;-80
2022/02/22 02:41:23;;;;;;;21.83;2.40;;;6.30;99.90;;;;;;5057931;28;20263;-82
2022/02/22 02:43:49;;;;;;;6.33;1.13;;;6.30;99.90;;;;;;5050361;28;20554;-82
2022/02/22 02:46:15;;;;;;;0.40;0.40;;;6.30;99.90;;;;;;5039768;28;20213;-82
2022/02/22 02:48:40;;;;;;;0.53;0.53;;;6.30;99.90;;;;;;5049415;28;20989;-79
2022/02/22 02:51:06;;;;;;;6.83;2.10;;;6.30;99.90;;;;;;5038061;28;20643;-82
2022/02/22 02:53:32;;;;;;;0.20;0.20;;;6.20;99.90;;;;;;5058164;28;20204;-82
2022/02/22 02:55:58;;;;;;;13.90;0.77;;;6.30;99.90;;;;;;5058197;28;20232;-81
2022/02/22 02:58:23;;;;;;;9.60;2.03;;;6.30;99.90;;;;;;5048324;28;21412;-82
2022/02/22 03:00:49;;;;;;;9.93;1.37;;;6.30;99.90;;;;;;5030605;28;20225;-81
2022/02/22 03:03:15;;;;;;;0.97;0.97;;;6.30;99.90;;;;;;5062700;28;20193;-81
2022/02/22 03:05:40;;;;;;;2.93;2.17;;;6.30;99.90;;;;;;5053567;28;20667;-81
2022/02/22 03:08:06;;;;;;;1.70;0.83;;;6.30;99.90;;;;;;5029231;28;20313;-82
2022/02/22 03:10:46;;;;;;;2.43;0.83;;;6.30;99.90;;;;;;5034130;28;20217;-82
2022/02/22 03:13:13;;;;;;;3.23;3.10;;;6.30;99.90;;;;;;5038024;28;20220;-82
2022/02/22 03:15:40;;;;;;;1.13;0.53;;;6.30;99.90;;;;;;5035483;28;20235;-82
2022/02/22 03:18:06;;;;;;;3.20;1.13;;;6.20;99.90;;;;;;5062256;28;20650;-82
2022/02/22 03:20:31;;;;;;;9.07;1.50;;;6.20;99.90;;;;;;5039086;28;20185;-81
2022/02/22 03:22:57;;;;;;;1.20;1.17;;;6.20;99.90;;;;;;5042843;28;20741;-81
2022/02/22 03:25:23;;;;;;;16.80;1.40;;;6.20;99.90;;;;;;5063089;28;20229;-82
2022/02/22 03:27:49;;;;;;;0.67;0.67;;;6.10;99.90;;;;;;5062478;28;20264;-79
2022/02/22 03:30:15;;;;;;;1.80;1.43;;;6.20;99.90;;;;;;5053469;28;20192;-79
2022/02/22 03:32:41;;;;;;;1.03;0.60;;;6.20;99.90;;;;;;5052912;28;20198;-81
2022/02/22 03:35:07;;;;;;;11.23;0.97;;;6.20;99.90;;;;;;5052650;28;20311;-80
2022/02/22 03:37:33;;;;;;;2.27;0.50;;;6.20;99.90;;;;;;5038843;28;21025;-80
2022/02/22 03:39:59;;;;;;;1.60;1.10;;;6.20;99.90;;;;;;5034870;28;20217;-80
2022/02/22 03:42:24;;;;;;;2.57;2.10;;;6.20;99.90;;;;;;5037078;28;20236;-79
2022/02/22 03:44:50;;;;;;;14.23;1.90;;;6.20;99.90;;;;;;5053658;28;20197;-82
2022/02/22 03:47:16;;;;;;;2.73;1.10;;;6.20;99.90;;;;;;5032076;28;20244;-81
2022/02/22 03:49:41;;;;;;;20.03;2.80;;;6.30;99.90;;;;;;5048080;28;20221;-79
2022/02/22 03:52:07;;;;;;;2.07;1.83;;;6.30;99.90;;;;;;5036491;28;20298;-82
2022/02/22 03:54:33;;;;;;;0.67;0.67;;;6.30;99.90;;;;;;5019058;28;20316;-80
2022/02/22 03:56:59;;;;;;;5.37;2.07;;;6.30;99.90;;;;;;5061400;28;20193;-82
2022/02/22 03:59:24;;;;;;;1.03;0.57;;;6.30;99.90;;;;;;5061812;28;20205;-82
2022/02/22 04:01:53;;;;;;;1.60;1.50;;;6.30;99.90;;;;;;5018326;28;20347;-82
2022/02/22 04:04:19;;;;;;;1.57;1.47;;;6.40;99.90;;;;;;5047233;28;20340;-82
2022/02/22 04:06:45;;;;;;;1.07;1.07;;;6.30;99.90;;;;;;5050087;28;20282;-81
2022/02/22 04:09:11;;;;;;;9.33;1.90;;;6.30;99.90;;;;;;5020430;28;20189;-81
2022/02/22 04:11:37;;;;;;;0.50;0.50;;;6.30;99.90;;;;;;5050444;28;20201;-82
2022/02/22 04:14:02;;;;;;;9.83;1.13;;;6.30;99.90;;;;;;5051458;28;20232;-81
2022/02/22 04:16:28;;;;;;;0.93;0.93;;;6.30;99.90;;;;;;5053416;28;20659;-82
2022/02/22 04:18:54;;;;;;;5.70;1.30;;;6.30;99.90;;;;;;5055668;28;20694;-81
2022/02/22 04:21:19;;;;;;;4.00;1.70;;;6.30;99.90;;;;;;5050871;28;20223;-82
2022/02/22 04:23:45;;;;;;;0.73;0.40;;;6.30;99.90;;;;;;5052440;28;20197;-82
2022/02/22 04:26:11;;;;;;;4.73;0.97;;;6.30;99.90;;;;;;5034145;28;20671;-81
2022/02/22 04:28:37;;;;;;;1.33;1.23;;;6.20;99.90;;;;;;5036638;28;20309;-81
2022/02/22 04:31:02;;;;;;;2.53;0.83;;;6.30;99.90;;;;;;5051601;28;20217;-82
2022/02/22 04:33:29;;;;;;;1.90;1.37;;;6.30;99.90;;;;;;5060913;28;20761;-81
2022/02/22 04:35:55;;;;;;;11.03;1.93;;;6.20;99.90;;;;;;5017362;28;20266;-79
2022/02/22 04:38:21;;;;;;;3.30;1.97;;;6.20;99.90;;;;;;5042547;28;20312;-81
2022/02/22 04:40:47;;;;;;;11.00;1.60;;;6.20;99.90;;;;;;5040181;28;20253;-80
2022/02/22 04:43:13;;;;;;;9.00;1.50;;;6.20;99.90;;;;;;5040527;28;20218;-79
2022/02/22 04:45:39;;;;;;;3.83;1.17;;;6.20;99.90;;;;;;5039482;28;20226;-80
2022/02/22 04:48:05;;;;;;;4.13;1.47;;;6.20;99.90;;;;;;5040771;28;20197;-80
2022/02/22 04:50:30;;;;;;;2.53;2.33;;;6.10;99.90;;;;;;5040352;28;21126;-80
2022/02/22 04:52:56;;;;;;;0.67;0.67;;;6.20;99.90;;;;;;5006307;28;20240;-80
2022/02/22 04:55:22;;;;;;;2.27;1.77;;;6.20;99.90;;;;;;5039234;28;20253;-78
2022/02/22 04:57:48;;;;;;;0.87;0.77;;;6.20;99.90;;;;;;5039184;28;20225;-80
2022/02/22 05:00:15;;;;;;;16.03;4.83;;;6.30;99.90;;;;;;5022365;28;20190;-80
2022/02/22 05:02:42;;;;;;;4.17;0.87;;;6.30;99.90;;;;;;5039803;28;20190;-80
2022/02/22 05:05:09;;;;;;;11.43;1.40;;;6.20;99.90;;;;;;5040916;28;20225;-80
2022/02/22 05:07:34;;;;;;;7.23;1.13;;;6.20;99.90;;;;;;5023105;28;20221;-80
2022/02/22 05:10:00;;;;;;;0.90;0.90;;;6.20;99.90;;;;;;5038678;28;20733;-81
2022/02/22 05:12:26;;;;;;;5.63;3.50;;;6.20;99.90;;;;;;5022303;28;20222;-80
2022/02/22 05:14:52;;;;;;;2.47;2.03;;;6.10;99.90;;;;;;5022083;28;20746;-82
2022/02/22 05:17:17;;;;;;;7.30;2.47;;;6.10;99.90;;;;;;5038936;28;20802;-79
2022/02/22 05:19:43;;;;;;;13.00;1.07;;;6.10;99.90;;;;;;5039440;28;20274;-82
2022/02/22 05:22:09;;;;;;;8.47;2.53;;;6.10;99.90;;;;;;5035689;28;20679;-81
2022/02/22 05:24:35;;;;;;;7.50;2.23;;;6.10;99.90;;;;;;5037997;28;20221;-81
2022/02/22 05:27:00;;;;;;;13.60;2.27;;;6.10;99.90;;;;;;5039329;28;20190;-81
2022/02/22 05:29:26;;;;;;;1.20;1.07;;;6.00;99.90;;;;;;5040106;28;20707;-80
2022/02/22 05:31:53;;;;;;;1.70;1.60;;;6.10;99.90;;;;;;5022972;28;20218;-79
2022/02/22 05:34:19;;;;;;;3.23;1.23;;;6.00;99.90;;;;;;5038849;28;20296;-82
2022/02/22 05:36:45;;;;;;;1.40;1.30;;;6.10;99.90;;;;;;5039151;28;20229;-82
2022/02/22 05:39:10;;;;;;;0.67;0.67;;;6.00;99.90;;;;;;5049670;28;21048;-81
2022/02/22 05:41:36;;;;;;;3.20;1.60;;;6.00;99.90;;;;;;5059812;28;20227;-82
2022/02/22 05:44:02;;;;;;;2.33;1.40;;;6.00;99.90;;;;;;5017451;28;20263;-81
2022/02/22 05:46:28;;;;;;;0.77;0.77;;;6.00;99.90;;;;;;5049635;28;20651;-83
2022/02/22 05:48:53;;;;;;;1.27;0.83;;;6.00;99.90;;;;;;5059253;28;20217;-81
2022/02/22 05:51:19;;;;;;;2.33;1.80;;;5.90;99.90;;;;;;5047135;28;20240;-79
2022/02/22 05:53:45;;;;;;;0.67;0.67;;;5.90;99.90;;;;;;5051196;28;20204;-80
2022/02/22 05:56:11;;;;;;;3.00;1.23;;;5.90;99.90;;;;;;5050186;28;20233;-80
2022/02/22 05:58:36;;;;;;;7.33;2.07;;;5.90;99.90;;;;;;5047712;28;20274;-81
2022/02/22 06:01:03;;;;;;;0.57;0.57;;;5.90;99.90;;;;;;5058744;28;20225;-81
2022/02/22 06:03:28;;;;;;;5.40;2.00;;;5.90;99.90;;;;;;5049987;28;20217;-80
2022/02/22 06:05:54;;;;;;;1.10;1.07;;;5.80;99.90;;;;;;5045230;28;20239;-81
2022/02/22 06:08:20;;;;;;;1.30;1.17;;;5.80;99.90;;;;;;5035353;28;21134;-81
2022/02/22 06:10:48;;;;;;;13.97;0.70;;;5.80;99.90;;;;;;5049875;28;20897;-81
2022/02/22 06:13:14;;;;;;;1.53;1.40;;;5.80;99.90;;;;;;5051555;28;20248;-81
2022/02/22 06:15:40;;;;;;;3.57;1.37;;;5.80;99.90;;;;;;5015231;28;20736;-81
2022/02/22 06:18:06;;;;;;;0.53;0.53;;;5.80;99.90;;;;;;5048262;28;20705;-81
2022/02/22 06:20:34;;;;;;;0.83;0.83;;;5.80;99.90;;;;;;5044937;28;20225;-80
2022/02/22 06:22:59;;;;;;;1.17;1.07;;;5.90;99.90;;;;;;5034005;28;20221;-80
2022/02/22 06:25:26;;;;;;;2.07;0.97;;;5.80;99.90;;;;;;5016696;28;20239;-81
2022/02/22 06:27:54;;;;;;;3.47;1.23;;;5.80;99.90;;;;;;5029833;28;20266;-80
2022/02/22 06:30:21;;;;;;;1.33;1.23;;;5.80;99.90;;;;;;5059059;28;20229;-81
2022/02/22 06:32:49;;;;;;;9.10;1.87;;;5.80;99.90;;;;;;5059844;28;20186;-81
2022/02/22 06:35:16;;;;;;;2.17;1.97;;;5.80;99.90;;;;;;5053112;28;20319;-82
2022/02/22 06:37:42;;;;;;;8.27;2.27;;;5.80;99.90;;;;;;5051924;28;20810;-81
2022/02/22 06:40:09;;;;;;;9.50;0.73;;;5.70;99.90;;;;;;5052249;28;20214;-81
2022/02/22 06:42:36;;;;;;;7.13;2.00;;;5.70;99.90;;;;;;5050685;28;20224;-79
2022/02/22 06:45:04;;;;;;;4.50;1.20;;;5.70;99.90;;;;;;5055020;28;20386;-81
2022/02/22 06:47:30;;;;;;;2.53;1.50;;;5.70;99.90;;;;;;5063581;28;20197;-81
2022/02/22 06:49:55;;;;;;;0.47;0.47;;;5.70;99.90;;;;;;5047734;28;20599;-81
2022/02/22 06:52:22;;;;;;;4.30;1.30;;;5.70;99.90;;;;;;5062919;28;21094;-82
2022/02/22 06:54:49;;;;;;;4.93;1.83;;;5.80;99.90;;;;;;5052716;28;20221;-81
2022/02/22 06:57:14;;;;;;;4.43;1.97;;;5.80;99.90;;;;;;5063440;28;20186;-80
2022/02/22 06:59:40;;;;;;;1.07;0.70;;;5.80;99.90;;;;;;5054434;28;20259;-81
2022/02/22 07:02:06;;;;;;;7.87;1.03;;;5.90;99.90;;;;;;5052803;28;20238;-80
2022/02/22 07:04:32;;;;;;;0.53;0.53;;;6.00;99.90;;;;;;5063187;28;20244;-81
2022/02/22 07:06:59;;;;;;;0.93;0.77;;;6.10;99.90;;;;;;5063819;28;20252;-80
2022/02/22 07:09:25;;;;;;;2.93;2.37;;;6.20;99.90;;;;;;5056492;28;20270;-80
2022/02/22 07:11:51;;;;;;;2.40;2.30;;;6.20;99.90;;;;;;5038532;28;20200;-80
2022/02/22 07:14:16;;;;;;;5.30;1.20;;;6.20;99.90;;;;;;5034027;28;20594;-80
2022/02/22 07:16:42;;;;;;;3.80;2.37;;;6.30;99.90;;;;;;5050715;28;20232;-80
2022/02/22 07:19:08;;;;;;;3.00;1.70;;;6.50;99.90;;;;;;5035758;28;20286;-81
2022/02/22 07:21:33;;;;;;;0.80;0.80;;;6.50;99.90;;;;;;5027283;28;20595;-81
2022/02/22 07:23:59;;;;;;;7.27;1.93;;;6.70;99.90;;;;;;5052439;28;20232;-81
2022/02/22 07:26:25;;;;;;;5.00;1.23;;;7.20;99.90;;;;;;5019459;28;20208;-82
2022/02/22 07:28:51;;;;;;;0.63;0.60;;;7.20;99.90;;;;;;5052381;28;20218;-82
2022/02/22 07:31:17;;;;;;;1.53;1.37;;;7.10;99.90;;;;;;5056979;28;20224;-79
2022/02/22 07:33:43;;;;;;;5.83;2.33;;;7.00;99.90;;;;;;5061930;28;20224;-81
2022/02/22 07:36:08;;;;;;;8.80;2.23;;;6.90;99.90;;;;;;5052493;28;20237;-80
2022/02/22 07:38:34;;;;;;;4.23;0.67;;;6.80;99.90;;;;;;5027674;28;20225;-81
2022/02/22 07:41:01;;;;;;;1.20;1.17;;;6.80;99.90;;;;;;5051905;28;20226;-80
2022/02/22 07:43:26;;;;;;;0.70;0.70;;;6.80;99.90;;;;;;5061661;28;20228;-81
2022/02/22 07:45:52;;;;;;;4.63;1.23;;;6.70;99.90;;;;;;5035321;28;20227;-82
2022/02/22 07:48:18;;;;;;;1.70;1.60;;;6.60;99.90;;;;;;5052238;28;20220;-82
2022/02/22 07:50:43;;;;;;;15.50;1.27;;;6.60;99.90;;;;;;5064839;28;20209;-81
2022/02/22 07:53:09;;;;;;;1.37;0.93;;;6.60;99.90;;;;;;5050843;28;21082;-81
2022/02/22 07:55:35;;;;;;;2.20;1.80;;;6.70;99.90;;;;;;5052743;28;20240;-81
2022/02/22 07:58:01;;;;;;;4.07;3.23;;;6.70;99.90;;;;;;5036106;28;20232;-81
2022/02/22 08:00:26;;;;;;;17.67;6.67;;;6.80;99.90;;;;;;5052611;28;20224;-81
2022/02/22 08:02:54;;;;;;;4.93;4.23;;;6.80;99.90;;;;;;5036214;28;20637;-80
2022/02/22 08:05:21;;;;;;;6.47;4.90;;;7.00;99.90;;;;;;5038356;28;20235;-81
2022/02/22 08:07:46;;;;;;;6.00;4.63;;;7.10;99.90;;;;;;5037994;28;20224;-81
2022/02/22 08:10:12;;;;;;;10.83;6.07;;;7.10;99.90;;;;;;5051626;28;20217;-81
2022/02/22 08:12:38;;;;;;;1.93;1.83;;;7.30;99.90;;;;;;5051378;28;20213;-81
2022/02/22 08:15:05;;;;;;;10.70;6.43;;;7.40;99.90;;;;;;5036683;28;20616;-82
2022/02/22 08:17:31;;;;;;;16.37;8.37;;;7.30;99.90;;;;;;5050969;28;20228;-81
2022/02/22 08:19:57;;;;;;;6.17;3.07;;;7.30;99.90;;;;;;5062756;28;20240;-81
2022/02/22 08:22:23;;;;;;;5.83;3.30;;;7.30;99.90;;;;;;5038652;28;20359;-80
2022/02/22 08:24:48;;;;;;;5.60;3.30;;;7.20;99.90;;;;;;5050790;28;20217;-80
2022/02/22 08:27:14;;;;;;;5.03;1.30;;;7.30;99.90;;;;;;5018412;28;20225;-81
2022/02/22 08:29:40;;;;;;;17.97;1.57;;;7.30;99.90;;;;;;5018866;28;20206;-81
2022/02/22 08:32:06;;;;;;;3.93;1.60;;;7.30;99.90;;;;;;5050699;28;20250;-81
2022/02/22 08:34:32;;;;;;;4.17;1.53;;;7.30;99.90;;;;;;5060762;28;20233;-81
2022/02/22 08:36:58;;;;;;;3.60;2.60;;;7.30;99.90;;;;;;5052390;28;20214;-81
2022/02/22 08:39:25;;;;;;;4.73;2.43;;;7.30;99.90;;;;;;5050890;28;20213;-80
2022/02/22 08:41:51;;;;;;;11.77;3.10;;;7.20;99.90;;;;;;5038226;28;20193;-81
2022/02/22 08:44:17;;;;;;;3.13;0.80;;;7.30;99.90;;;;;;5050894;28;20217;-81
2022/02/22 08:46:44;;;;;;;1.23;1.23;;;7.30;99.90;;;;;;5062356;28;20221;-81
2022/02/22 08:49:10;;;;;;;0.50;0.40;;;7.40;99.90;;;;;;5062630;28;20304;-82
2022/02/22 08:51:36;;;;;;;1.90;1.30;;;7.40;99.90;;;;;;5052500;28;20584;-80
2022/02/22 08:54:04;;;;;;;0.60;0.60;;;7.50;99.90;;;;;;5034393;28;20730;-82
2022/02/22 08:56:30;;;;;;;3.10;0.97;;;7.50;99.90;;;;;;5053272;28;20196;-82
2022/02/22 08:58:56;;;;;;;0.93;0.93;;;7.50;99.90;;;;;;5061065;28;20359;-81
2022/02/22 09:01:23;;;;;;;2.03;1.07;;;7.50;99.90;;;;;;5019675;28;20956;-82
2022/02/22 09:03:49;;;;;;;6.80;2.53;;;7.40;99.90;;;;;;5038134;28;20221;-82
2022/02/22 09:06:15;;;;;;;12.83;1.20;;;7.50;99.90;;;;;;5061546;28;20678;-82
2022/02/22 09:08:40;;;;;;;8.83;1.40;;;7.60;99.90;;;;;;5053058;28;20193;-81
2022/02/22 09:11:06;;;;;;;0.73;0.50;;;7.60;99.90;;;;;;5053620;28;20304;-81
2022/02/22 09:13:32;;;;;;;0.77;0.77;;;7.60;99.90;;;;;;5037409;28;21099;-81
2022/02/22 09:15:58;;;;;;;10.60;2.77;;;7.60;99.90;;;;;;5035912;28;20229;-81
2022/02/22 09:18:23;;;;;;;5.97;4.70;;;7.70;99.90;;;;;;5016460;28;20696;-80
2022/02/22 09:20:49;;;;;;;2.27;0.83;;;7.70;99.90;;;;;;5048799;28;20284;-79
2022/02/22 09:23:15;;;;;;;6.40;2.47;;;7.70;99.90;;;;;;5051464;28;20247;-80
2022/02/22 09:25:40;;;;;;;7.30;3.93;;;7.80;99.90;;;;;;5050270;28;21200;-80
2022/02/22 09:28:08;;;;;;;1.43;1.33;;;7.90;99.90;;;;;;5060864;28;20822;-80
2022/02/22 09:30:35;;;;;;;2.63;2.00;;;7.90;99.90;;;;;;5047332;28;20217;-80
2022/02/22 09:33:01;;;;;;;10.33;1.60;;;8.00;99.90;;;;;;5049659;28;20190;-80
2022/02/22 09:35:27;;;;;;;6.47;2.60;;;8.00;99.90;;;;;;5053537;28;20240;-80
2022/02/22 09:37:55;;;;;;;3.93;1.40;;;8.00;99.90;;;;;;5050284;28;20245;-80
2022/02/22 09:40:22;;;;;;;2.87;1.40;;;8.10;99.90;;;;;;5050940;28;20302;-81
2022/02/22 09:42:47;;;;;;;2.43;1.60;;;8.10;99.90;;;;;;5049826;28;20312;-79
2022/02/22 09:45:14;;;;;;;5.60;2.53;;;8.10;99.90;;;;;;5049254;28;20193;-80
2022/02/22 09:47:41;;;;;;;6.60;2.97;;;8.20;99.90;;;;;;5061572;28;20215;-80
2022/02/22 09:50:08;;;;;;;4.10;2.07;;;8.20;99.90;;;;;;5048144;28;20221;-80
2022/02/22 09:52:34;;;;;;;15.07;7.63;;;8.30;99.90;;;;;;5066415;28;20225;-81
2022/02/22 09:55:00;;;;;;;5.90;5.23;;;8.20;99.90;;;;;;5048644;28;20267;-81
2022/02/22 09:57:26;;;;;;;11.10;3.97;;;8.30;99.90;;;;;;5049128;28;20213;-81
2022/02/22 09:59:52;;;;;;;10.67;4.67;;;8.40;99.90;;;;;;5050557;28;21039;-80
2022/02/22 10:02:17;;;;;;;22.10;2.90;;;8.40;99.90;;;;;;5036897;28;20217;-80
2022/02/22 10:04:46;;;;;;;7.40;2.43;;;8.40;99.90;;;;;;5049393;28;20748;-81
2022/02/22 10:07:12;;;;;;;6.57;3.53;;;8.50;99.90;;;;;;5051475;28;20224;-80
2022/02/22 10:10:02;;;;;;;8.67;3.23;;;8.50;99.90;;;;;;5057262;28;20209;-82
2022/02/22 10:12:30;;;;;;;10.80;3.23;;;8.50;99.90;;;;;;5044348;28;20770;-79
2022/02/22 10:14:58;;;;;;;8.33;5.10;;;8.50;99.90;;;;;;5059207;28;20569;-80
2022/02/22 10:17:24;;;;;;;8.63;3.23;;;8.60;99.90;;;;;;5058678;28;20220;-81
2022/02/22 10:19:58;;;;;;;7.63;2.70;;;8.50;99.90;;;;;;5048929;28;20221;-82
2022/02/22 10:22:25;;;;;;;3.40;1.70;;;8.50;99.90;;;;;;5034535;28;20277;-81
2022/02/22 10:25:05;;;;;;;2.63;2.10;;;8.60;99.90;;;;;;5052136;28;20232;-82
2022/02/22 10:27:50;;;;;;;11.43;3.47;;;8.50;99.90;;;;;;5030465;28;20270;-82
2022/02/22 10:30:38;;;;;;;9.17;3.00;;;8.60;99.90;;;;;;5040386;28;20207;-81
2022/02/22 10:33:27;;;;;;;9.33;2.83;;;8.50;99.90;;;;;;5048477;28;20296;-82
2022/02/22 10:36:04;;;;;;;5.07;1.80;;;8.60;99.90;;;;;;5051344;28;20232;-80
2022/02/22 10:38:33;;;;;;;13.00;2.60;;;8.60;99.90;;;;;;5041093;28;20233;-80
2022/02/22 10:41:05;;;;;;;3.33;1.53;;;8.60;99.90;;;;;;5040960;28;20213;-82
2022/02/22 10:43:36;;;;;;;11.13;3.20;;;8.70;99.90;;;;;;5038616;28;20217;-80
2022/02/22 10:46:07;;;;;;;4.17;2.57;;;8.70;99.90;;;;;;5038614;28;20218;-80
2022/02/22 10:48:40;;;;;;;1.90;1.60;;;8.80;99.90;;;;;;5040222;28;20224;-80
2022/02/22 10:51:16;;;;;;;2.63;2.10;;;8.90;99.90;;;;;;5040643;28;20235;-80
2022/02/22 10:53:45;;;;;;;10.90;2.47;;;8.80;99.90;;;;;;5040846;28;20189;-80
2022/02/22 10:56:14;;;;;;;5.23;2.87;;;8.80;99.90;;;;;;5040274;28;20353;-80
2022/02/22 10:58:43;;;;;;;3.17;2.63;;;8.90;99.90;;;;;;5041446;28;21019;-80
2022/02/22 11:01:12;;;;;;;11.93;2.90;;;9.00;99.90;;;;;;5040400;28;20312;-82
2022/02/22 11:03:41;;;;;;;25.43;2.97;;;8.90;99.90;;;;;;5042155;28;20284;-81
2022/02/22 11:06:08;;;;;;;1.53;1.43;;;8.90;99.90;;;;;;5040699;28;20204;-80
2022/02/22 11:08:34;;;;;;;7.83;1.70;;;8.90;99.90;;;;;;5041826;28;20213;-80
2022/02/22 11:11:10;;;;;;;6.73;2.93;;;8.90;99.90;;;;;;5039598;28;20726;-81
2022/02/22 11:13:36;;;;;;;3.20;2.40;;;8.80;99.90;;;;;;5038408;28;20340;-81
2022/02/22 11:16:14;;;;;;;1.93;1.83;;;8.80;99.90;;;;;;5037771;28;20234;-82
2022/02/22 11:18:53;;;;;;;5.03;1.83;;;8.70;99.90;;;;;;5039129;28;20222;-81
2022/02/22 11:21:22;;;;;;;2.87;1.90;;;8.70;99.90;;;;;;5034695;28;20186;-78
2022/02/22 11:23:48;;;;;;;16.67;2.67;;;8.70;99.90;;;;;;5043852;28;20190;-79
2022/02/22 11:26:18;;;;;;;3.97;1.47;;;8.70;99.90;;;;;;5043619;28;20308;-80
2022/02/22 11:28:52;;;;;;;7.17;1.77;;;8.70;99.90;;;;;;5042994;28;20219;-79
2022/02/22 11:31:21;;;;;;;5.17;1.83;;;8.60;99.90;;;;;;5042876;28;20620;-80
2022/02/22 11:33:50;;;;;;;3.00;1.07;;;8.50;99.90;;;;;;5044493;28;20300;-80
2022/02/22 11:36:30;;;;;;;13.10;2.23;;;8.50;99.90;;;;;;5036129;28;20358;-80
2022/02/22 11:38:56;;;;;;;12.17;3.33;;;8.50;99.90;;;;;;5060911;28;20285;-80
2022/02/22 11:41:25;;;;;;;9.93;1.80;;;8.50;99.90;;;;;;5063309;28;20221;-80
2022/02/22 11:44:03;;;;;;;1.20;0.97;;;8.50;99.90;;;;;;5065126;28;20213;-80
2022/02/22 11:46:42;;;;;;;2.00;1.07;;;8.40;99.90;;;;;;5065727;28;20220;-80
2022/02/22 11:49:20;;;;;;;6.30;2.07;;;8.40;99.90;;;;;;5064783;28;20217;-82
2022/02/22 11:51:48;;;;;;;3.07;2.40;;;8.30;99.90;;;;;;5071063;28;20292;-81
2022/02/22 11:54:20;;;;;;;1.33;1.17;;;8.50;99.90;;;;;;5050262;28;20224;-81
2022/02/22 11:56:46;;;;;;;1.80;1.70;;;8.40;99.90;;;;;;5051890;28;20189;-81
2022/02/22 11:59:21;;;;;;;2.93;1.07;;;8.50;99.90;;;;;;5017763;28;20278;-84
2022/02/22 12:01:55;;;;;;;6.23;1.83;;;8.50;99.90;;;;;;5062667;28;20291;-84
2022/02/22 12:04:25;;;;;;;3.03;1.17;;;8.60;99.90;;;;;;5053769;28;20220;-84
2022/02/22 12:06:54;;;;;;;4.13;1.13;;;8.60;99.90;;;;;;5056071;28;20221;-85
2022/02/22 12:09:31;;;;;;;1.37;0.70;;;8.60;99.90;;;;;;5066590;28;20701;-85
2022/02/22 12:12:11;;;;;;;5.77;1.93;;;8.60;99.90;;;;;;5050515;28;20193;-85
2022/02/22 12:14:49;;;;;;;2.63;1.27;;;8.60;99.90;;;;;;5057822;28;20303;-84
2022/02/22 12:17:15;;;;;;;3.27;2.00;;;8.70;99.90;;;;;;5050478;28;20221;-84
2022/02/22 12:19:40;;;;;;;3.27;1.87;;;8.70;99.90;;;;;;5056442;28;20275;-84
2022/02/22 12:22:07;;;;;;;12.07;2.03;;;8.80;99.90;;;;;;5051573;28;20322;-84
2022/02/22 12:24:32;;;;;;;2.60;2.40;;;8.80;99.90;;;;;;5063652;28;20290;-84
2022/02/22 12:27:18;;;;;;;4.87;3.80;;;8.80;99.90;;;;;;5036219;28;20536;-85
2022/02/22 12:29:44;;;;;;;2.67;1.73;;;8.80;99.90;;;;;;5066723;28;20213;-83
2022/02/22 12:32:10;;;;;;;1.63;1.53;;;8.90;99.90;;;;;;5052523;28;20667;-84
2022/02/22 12:34:36;;;;;;;2.40;1.90;;;8.90;99.90;;;;;;5050199;28;20274;-84
2022/02/22 12:37:05;;;;;;;3.33;2.63;;;8.90;99.90;;;;;;5054840;28;20213;-84
2022/02/22 12:39:33;;;;;;;7.77;1.97;;;8.90;99.90;;;;;;5039229;28;20231;-84
2022/02/22 12:42:01;;;;;;;2.60;2.37;;;9.00;99.90;;;;;;5039115;28;20186;-84
2022/02/22 12:44:28;;;;;;;6.83;4.00;;;9.00;99.90;;;;;;5052580;28;20205;-83
2022/02/22 12:46:56;;;;;;;12.60;4.03;;;9.10;99.90;;;;;;5055919;28;20239;-84
2022/02/22 12:49:23;;;;;;;6.87;5.27;;;9.20;99.90;;;;;;5064460;28;20225;-84
2022/02/22 12:51:56;;;;;;;10.67;6.00;;;9.20;99.90;;;;;;5038484;28;20689;-85
2022/02/22 12:54:22;;;;;;;11.50;3.50;;;9.30;99.90;;;;;;5064434;28;20220;-83